sensor_id;sensor_type;location;lat;lon;timestamp;temperature;humidity
4207;DHT22;2117;47.972;7.830;2023-07-31T01:02:22;16.10;99.90
4207;DHT22;2117;47.972;7.830;2023-07-31T01:04:47;16.10;99.90
4207;DHT22;2117;47.972;7.830;2023-07-31T01:10:11;16.10;99.90
4207;DHT22;2117;47.972;7.830;2023-07-31T01:12:40;16.00;99.90
4207;DHT22;2117;47.972;7.830;2023-07-31T01:15:08;15.90;99.90
4207;DHT22;2117;47.972;7.830;2023-07-31T01:17:38;15.90;99.90
4207;DHT22;2117;47.972;7.830;2023-07-31T01:20:11;15.90;99.90
4207;DHT22;2117;47.972;7.830;2023-07-31T01:27:47;15.90;99.90
4207;DHT22;2117;47.972;7.830;2023-07-31T01:30:20;15.90;99.90
4207;DHT22;2117;47.972;7.830;2023-07-31T01:32:48;15.80;99.90
4207;DHT22;2117;47.972;7.830;2023-07-31T01:35:15;15.80;99.90
4207;DHT22;2117;47.972;7.830;2023-07-31T01:37:40;15.80;99.90
4207;DHT22;2117;47.972;7.830;2023-07-31T01:40:07;15.70;99.90
4207;DHT22;2117;47.972;7.830;2023-07-31T01:42:33;15.70;99.90
4207;DHT22;2117;47.972;7.830;2023-07-31T01:44:58;15.80;99.90
4207;DHT22;2117;47.972;7.830;2023-07-31T01:47:24;15.70;99.90
4207;DHT22;2117;47.972;7.830;2023-07-31T01:49:50;15.70;99.90
4207;DHT22;2117;47.972;7.830;2023-07-31T01:52:15;15.70;99.90
4207;DHT22;2117;47.972;7.830;2023-07-31T01:54:41;15.60;99.90
4207;DHT22;2117;47.972;7.830;2023-07-31T01:57:06;15.60;99.90
4207;DHT22;2117;47.972;7.830;2023-07-31T01:59:32;15.60;99.90
4207;DHT22;2117;47.972;7.830;2023-07-31T02:01:57;15.60;99.90
4207;DHT22;2117;47.972;7.830;2023-07-31T02:04:23;15.60;99.90
4207;DHT22;2117;47.972;7.830;2023-07-31T02:06:48;15.60;99.90
4207;DHT22;2117;47.972;7.830;2023-07-31T02:09:14;15.50;99.90
4207;DHT22;2117;47.972;7.830;2023-07-31T02:11:40;15.50;99.90
4207;DHT22;2117;47.972;7.830;2023-07-31T02:14:05;15.40;99.90
4207;DHT22;2117;47.972;7.830;2023-07-31T02:16:31;15.40;99.90
4207;DHT22;2117;47.972;7.830;2023-07-31T02:18:56;15.40;99.90
4207;DHT22;2117;47.972;7.830;2023-07-31T02:21:22;15.40;99.90
4207;DHT22;2117;47.972;7.830;2023-07-31T02:23:47;15.30;99.90
4207;DHT22;2117;47.972;7.830;2023-07-31T02:26:13;15.30;99.90
4207;DHT22;2117;47.972;7.830;2023-07-31T02:28:38;15.30;99.90
4207;DHT22;2117;47.972;7.830;2023-07-31T02:31:04;15.30;99.90
4207;DHT22;2117;47.972;7.830;2023-07-31T02:33:29;15.30;99.90
4207;DHT22;2117;47.972;7.830;2023-07-31T02:35:55;15.20;99.90
4207;DHT22;2117;47.972;7.830;2023-07-31T02:38:21;15.10;99.90
4207;DHT22;2117;47.972;7.830;2023-07-31T02:40:46;15.20;99.90
4207;DHT22;2117;47.972;7.830;2023-07-31T02:43:13;15.10;99.90
4207;DHT22;2117;47.972;7.830;2023-07-31T02:45:38;15.10;99.90
4207;DHT22;2117;47.972;7.830;2023-07-31T02:48:04;15.10;99.90
4207;DHT22;2117;47.972;7.830;2023-07-31T02:50:30;15.10;99.90
4207;DHT22;2117;47.972;7.830;2023-07-31T02:52:55;15.10;99.90
4207;DHT22;2117;47.972;7.830;2023-07-31T02:55:21;15.10;99.90
4207;DHT22;2117;47.972;7.830;2023-07-31T02:57:46;15.20;99.90
4207;DHT22;2117;47.972;7.830;2023-07-31T03:00:13;15.20;99.90
4207;DHT22;2117;47.972;7.830;2023-07-31T03:02:38;15.20;99.90
4207;DHT22;2117;47.972;7.830;2023-07-31T03:05:04;15.20;99.90
4207;DHT22;2117;47.972;7.830;2023-07-31T03:07:29;15.20;99.90
4207;DHT22;2117;47.972;7.830;2023-07-31T03:09:56;15.20;99.90
4207;DHT22;2117;47.972;7.830;2023-07-31T03:12:21;15.30;99.90
4207;DHT22;2117;47.972;7.830;2023-07-31T03:14:47;15.30;99.90
4207;DHT22;2117;47.972;7.830;2023-07-31T03:17:13;15.30;99.90
4207;DHT22;2117;47.972;7.830;2023-07-31T03:19:38;15.30;99.90
4207;DHT22;2117;47.972;7.830;2023-07-31T03:22:04;15.30;99.90
4207;DHT22;2117;47.972;7.830;2023-07-31T03:24:29;15.30;99.90
4207;DHT22;2117;47.972;7.830;2023-07-31T03:26:55;15.30;99.90
4207;DHT22;2117;47.972;7.830;2023-07-31T03:29:21;15.30;99.90
4207;DHT22;2117;47.972;7.830;2023-07-31T03:31:46;15.30;99.90
4207;DHT22;2117;47.972;7.830;2023-07-31T03:34:12;15.30;99.90
4207;DHT22;2117;47.972;7.830;2023-07-31T03:36:37;15.30;99.90
4207;DHT22;2117;47.972;7.830;2023-07-31T03:39:03;15.30;99.90
4207;DHT22;2117;47.972;7.830;2023-07-31T03:41:29;15.30;99.90
4207;DHT22;2117;47.972;7.830;2023-07-31T03:43:54;15.30;99.90
4207;DHT22;2117;47.972;7.830;2023-07-31T03:46:23;15.30;99.90
4207;DHT22;2117;47.972;7.830;2023-07-31T03:48:49;15.30;99.90
4207;DHT22;2117;47.972;7.830;2023-07-31T03:51:15;15.30;99.90
4207;DHT22;2117;47.972;7.830;2023-07-31T03:53:42;15.30;99.90
4207;DHT22;2117;47.972;7.830;2023-07-31T03:56:07;15.30;99.90
4207;DHT22;2117;47.972;7.830;2023-07-31T03:58:33;15.40;99.90
4207;DHT22;2117;47.972;7.830;2023-07-31T04:00:58;15.50;99.90
4207;DHT22;2117;47.972;7.830;2023-07-31T04:03:24;15.40;99.90
4207;DHT22;2117;47.972;7.830;2023-07-31T04:05:50;15.50;99.90
4207;DHT22;2117;47.972;7.830;2023-07-31T04:08:15;15.50;99.90
4207;DHT22;2117;47.972;7.830;2023-07-31T04:10:41;15.40;99.90
4207;DHT22;2117;47.972;7.830;2023-07-31T04:13:06;15.40;99.90
4207;DHT22;2117;47.972;7.830;2023-07-31T04:15:32;15.50;99.90
4207;DHT22;2117;47.972;7.830;2023-07-31T04:17:57;15.40;99.90
4207;DHT22;2117;47.972;7.830;2023-07-31T04:20:23;15.40;99.90
4207;DHT22;2117;47.972;7.830;2023-07-31T04:22:49;15.40;99.90
4207;DHT22;2117;47.972;7.830;2023-07-31T04:25:14;15.40;99.90
4207;DHT22;2117;47.972;7.830;2023-07-31T04:27:40;15.40;99.90
4207;DHT22;2117;47.972;7.830;2023-07-31T04:30:06;15.30;99.90
4207;DHT22;2117;47.972;7.830;2023-07-31T04:32:32;15.30;99.90
4207;DHT22;2117;47.972;7.830;2023-07-31T04:34:57;15.30;99.90
4207;DHT22;2117;47.972;7.830;2023-07-31T04:37:23;15.30;99.90
4207;DHT22;2117;47.972;7.830;2023-07-31T04:39:48;15.30;99.90
4207;DHT22;2117;47.972;7.830;2023-07-31T04:42:14;15.30;99.90
4207;DHT22;2117;47.972;7.830;2023-07-31T04:44:40;15.40;99.90
4207;DHT22;2117;47.972;7.830;2023-07-31T04:47:05;15.40;99.90
4207;DHT22;2117;47.972;7.830;2023-07-31T04:49:32;15.40;99.90
4207;DHT22;2117;47.972;7.830;2023-07-31T04:51:57;15.40;99.90
4207;DHT22;2117;47.972;7.830;2023-07-31T04:54:23;15.30;99.90
4207;DHT22;2117;47.972;7.830;2023-07-31T04:56:48;15.40;99.90
4207;DHT22;2117;47.972;7.830;2023-07-31T05:01:40;16.00;99.90
4207;DHT22;2117;47.972;7.830;2023-07-31T05:04:06;16.20;99.90
4207;DHT22;2117;47.972;7.830;2023-07-31T05:06:31;16.40;99.90
4207;DHT22;2117;47.972;7.830;2023-07-31T05:08:57;16.50;99.90
4207;DHT22;2117;47.972;7.830;2023-07-31T05:11:22;16.90;99.90
4207;DHT22;2117;47.972;7.830;2023-07-31T05:13:48;16.90;99.90
4207;DHT22;2117;47.972;7.830;2023-07-31T05:16:13;17.10;99.90
4207;DHT22;2117;47.972;7.830;2023-07-31T05:18:40;17.20;99.90
4207;DHT22;2117;47.972;7.830;2023-07-31T05:21:05;17.50;99.90
4207;DHT22;2117;47.972;7.830;2023-07-31T05:23:31;17.50;99.90
4207;DHT22;2117;47.972;7.830;2023-07-31T05:26:05;17.70;99.90
4207;DHT22;2117;47.972;7.830;2023-07-31T05:28:31;17.70;99.90
4207;DHT22;2117;47.972;7.830;2023-07-31T05:31:03;17.90;99.90
4207;DHT22;2117;47.972;7.830;2023-07-31T05:33:29;17.90;99.90
4207;DHT22;2117;47.972;7.830;2023-07-31T05:35:55;18.00;99.90
4207;DHT22;2117;47.972;7.830;2023-07-31T05:38:20;18.00;99.90
4207;DHT22;2117;47.972;7.830;2023-07-31T05:40:47;18.10;99.90
4207;DHT22;2117;47.972;7.830;2023-07-31T05:43:12;18.10;99.90
4207;DHT22;2117;47.972;7.830;2023-07-31T05:45:38;18.20;99.90
4207;DHT22;2117;47.972;7.830;2023-07-31T05:48:05;18.30;99.90
4207;DHT22;2117;47.972;7.830;2023-07-31T05:50:31;18.40;99.90
4207;DHT22;2117;47.972;7.830;2023-07-31T05:52:56;18.40;99.90
4207;DHT22;2117;47.972;7.830;2023-07-31T05:55:22;18.40;99.90
4207;DHT22;2117;47.972;7.830;2023-07-31T05:57:48;18.50;99.90
4207;DHT22;2117;47.972;7.830;2023-07-31T06:00:14;18.50;99.90
4207;DHT22;2117;47.972;7.830;2023-07-31T06:02:40;18.50;99.90
4207;DHT22;2117;47.972;7.830;2023-07-31T06:05:06;18.50;99.90
4207;DHT22;2117;47.972;7.830;2023-07-31T06:07:32;18.60;99.90
4207;DHT22;2117;47.972;7.830;2023-07-31T06:09:57;18.60;99.90
4207;DHT22;2117;47.972;7.830;2023-07-31T06:12:28;18.70;99.90
4207;DHT22;2117;47.972;7.830;2023-07-31T06:14:54;18.70;99.90
4207;DHT22;2117;47.972;7.830;2023-07-31T06:22:12;18.70;99.90
4207;DHT22;2117;47.972;7.830;2023-07-31T06:24:38;18.70;99.90
4207;DHT22;2117;47.972;7.830;2023-07-31T06:27:05;18.80;99.90
4207;DHT22;2117;47.972;7.830;2023-07-31T06:31:58;18.90;99.90
4207;DHT22;2117;47.972;7.830;2023-07-31T06:34:23;18.90;99.90
4207;DHT22;2117;47.972;7.830;2023-07-31T06:36:49;18.90;99.90
4207;DHT22;2117;47.972;7.830;2023-07-31T06:39:14;19.00;99.90
4207;DHT22;2117;47.972;7.830;2023-07-31T06:41:40;19.00;99.90
4207;DHT22;2117;47.972;7.830;2023-07-31T06:44:05;19.00;99.90
4207;DHT22;2117;47.972;7.830;2023-07-31T06:46:31;19.10;99.90
4207;DHT22;2117;47.972;7.830;2023-07-31T06:48:57;19.10;99.90
4207;DHT22;2117;47.972;7.830;2023-07-31T06:51:22;19.10;99.90
4207;DHT22;2117;47.972;7.830;2023-07-31T06:53:48;19.00;99.90
4207;DHT22;2117;47.972;7.830;2023-07-31T06:58:39;18.90;99.90
4207;DHT22;2117;47.972;7.830;2023-07-31T07:01:05;18.80;99.90
4207;DHT22;2117;47.972;7.830;2023-07-31T07:03:30;18.70;99.90
4207;DHT22;2117;47.972;7.830;2023-07-31T07:05:56;18.70;99.90
4207;DHT22;2117;47.972;7.830;2023-07-31T07:08:22;18.70;99.90
4207;DHT22;2117;47.972;7.830;2023-07-31T07:10:47;18.80;99.90
4207;DHT22;2117;47.972;7.830;2023-07-31T07:13:13;18.80;99.90
4207;DHT22;2117;47.972;7.830;2023-07-31T07:15:39;18.70;99.90
4207;DHT22;2117;47.972;7.830;2023-07-31T07:18:05;18.70;99.90
4207;DHT22;2117;47.972;7.830;2023-07-31T07:20:30;18.80;99.90
4207;DHT22;2117;47.972;7.830;2023-07-31T07:22:56;18.80;99.90
4207;DHT22;2117;47.972;7.830;2023-07-31T07:25:22;18.80;99.90
4207;DHT22;2117;47.972;7.830;2023-07-31T07:27:47;18.80;99.90
4207;DHT22;2117;47.972;7.830;2023-07-31T07:30:13;18.80;99.90
4207;DHT22;2117;47.972;7.830;2023-07-31T07:32:39;18.80;99.90
4207;DHT22;2117;47.972;7.830;2023-07-31T07:35:06;18.80;99.90
4207;DHT22;2117;47.972;7.830;2023-07-31T07:37:31;18.80;99.90
4207;DHT22;2117;47.972;7.830;2023-07-31T07:39:57;18.90;99.90
4207;DHT22;2117;47.972;7.830;2023-07-31T07:42:23;19.00;99.90
4207;DHT22;2117;47.972;7.830;2023-07-31T07:44:48;19.00;99.90
4207;DHT22;2117;47.972;7.830;2023-07-31T07:47:14;19.20;99.90
4207;DHT22;2117;47.972;7.830;2023-07-31T07:49:39;19.30;99.90
4207;DHT22;2117;47.972;7.830;2023-07-31T07:52:05;19.40;99.90
4207;DHT22;2117;47.972;7.830;2023-07-31T07:54:31;19.40;99.90
4207;DHT22;2117;47.972;7.830;2023-07-31T07:56:56;19.60;99.90
4207;DHT22;2117;47.972;7.830;2023-07-31T07:59:22;19.70;99.90
4207;DHT22;2117;47.972;7.830;2023-07-31T08:01:48;19.80;99.90
4207;DHT22;2117;47.972;7.830;2023-07-31T08:04:13;19.90;99.90
4207;DHT22;2117;47.972;7.830;2023-07-31T08:06:39;20.00;99.90
4207;DHT22;2117;47.972;7.830;2023-07-31T08:09:05;20.10;99.90
4207;DHT22;2117;47.972;7.830;2023-07-31T08:11:32;20.10;99.90
4207;DHT22;2117;47.972;7.830;2023-07-31T08:13:58;20.10;99.90
4207;DHT22;2117;47.972;7.830;2023-07-31T08:16:23;20.10;99.90
4207;DHT22;2117;47.972;7.830;2023-07-31T08:18:49;20.20;99.90
4207;DHT22;2117;47.972;7.830;2023-07-31T08:21:14;20.10;99.90
4207;DHT22;2117;47.972;7.830;2023-07-31T08:23:40;20.10;99.90
4207;DHT22;2117;47.972;7.830;2023-07-31T08:26:06;20.10;99.90
4207;DHT22;2117;47.972;7.830;2023-07-31T08:28:32;20.10;99.90
4207;DHT22;2117;47.972;7.830;2023-07-31T08:30:57;20.10;99.90
4207;DHT22;2117;47.972;7.830;2023-07-31T08:33:23;20.10;99.90
4207;DHT22;2117;47.972;7.830;2023-07-31T08:35:49;20.10;99.90
4207;DHT22;2117;47.972;7.830;2023-07-31T08:38:14;20.20;99.90
4207;DHT22;2117;47.972;7.830;2023-07-31T08:40:40;20.20;99.90
4207;DHT22;2117;47.972;7.830;2023-07-31T08:43:06;20.10;99.90
4207;DHT22;2117;47.972;7.830;2023-07-31T08:45:32;20.30;99.90
4207;DHT22;2117;47.972;7.830;2023-07-31T08:47:58;20.40;99.90
4207;DHT22;2117;47.972;7.830;2023-07-31T08:50:24;20.40;99.90
4207;DHT22;2117;47.972;7.830;2023-07-31T08:52:51;20.40;99.90
4207;DHT22;2117;47.972;7.830;2023-07-31T08:55:17;20.50;99.90
4207;DHT22;2117;47.972;7.830;2023-07-31T08:57:43;20.60;99.90
4207;DHT22;2117;47.972;7.830;2023-07-31T09:00:10;20.60;99.90
4207;DHT22;2117;47.972;7.830;2023-07-31T09:02:48;20.60;99.90
4207;DHT22;2117;47.972;7.830;2023-07-31T09:05:16;20.60;99.90
4207;DHT22;2117;47.972;7.830;2023-07-31T09:07:45;20.60;99.90
4207;DHT22;2117;47.972;7.830;2023-07-31T09:10:12;20.70;99.90
4207;DHT22;2117;47.972;7.830;2023-07-31T09:12:39;20.90;99.90
4207;DHT22;2117;47.972;7.830;2023-07-31T09:15:05;21.00;99.90
4207;DHT22;2117;47.972;7.830;2023-07-31T09:19:57;21.10;99.90
4207;DHT22;2117;47.972;7.830;2023-07-31T09:22:32;20.90;99.90
4207;DHT22;2117;47.972;7.830;2023-07-31T09:27:48;20.90;99.90
4207;DHT22;2117;47.972;7.830;2023-07-31T09:30:15;21.10;99.90
4207;DHT22;2117;47.972;7.830;2023-07-31T09:32:41;21.10;99.90
4207;DHT22;2117;47.972;7.830;2023-07-31T09:35:19;21.30;99.90
4207;DHT22;2117;47.972;7.830;2023-07-31T09:37:53;21.30;99.90
4207;DHT22;2117;47.972;7.830;2023-07-31T09:42:51;21.50;99.90
4207;DHT22;2117;47.972;7.830;2023-07-31T09:45:18;21.60;99.90
4207;DHT22;2117;47.972;7.830;2023-07-31T09:47:47;21.60;99.90
4207;DHT22;2117;47.972;7.830;2023-07-31T09:50:16;21.60;99.90
4207;DHT22;2117;47.972;7.830;2023-07-31T09:52:42;21.70;99.90
4207;DHT22;2117;47.972;7.830;2023-07-31T09:55:11;21.70;99.90
4207;DHT22;2117;47.972;7.830;2023-07-31T09:57:40;21.70;99.90
4207;DHT22;2117;47.972;7.830;2023-07-31T10:00:07;21.80;99.90
4207;DHT22;2117;47.972;7.830;2023-07-31T10:02:34;21.90;99.90
4207;DHT22;2117;47.972;7.830;2023-07-31T10:05:02;22.00;99.90
4207;DHT22;2117;47.972;7.830;2023-07-31T10:07:30;22.20;99.90
4207;DHT22;2117;47.972;7.830;2023-07-31T10:09:59;22.20;99.90
4207;DHT22;2117;47.972;7.830;2023-07-31T10:12:29;22.20;99.90
4207;DHT22;2117;47.972;7.830;2023-07-31T10:14:55;22.30;99.90
4207;DHT22;2117;47.972;7.830;2023-07-31T10:17:25;22.30;99.90
4207;DHT22;2117;47.972;7.830;2023-07-31T10:19:51;22.30;99.90
4207;DHT22;2117;47.972;7.830;2023-07-31T10:22:18;22.30;99.90
4207;DHT22;2117;47.972;7.830;2023-07-31T10:24:45;22.40;99.90
4207;DHT22;2117;47.972;7.830;2023-07-31T10:27:11;22.30;99.90
4207;DHT22;2117;47.972;7.830;2023-07-31T10:29:38;22.40;99.90
4207;DHT22;2117;47.972;7.830;2023-07-31T10:32:06;22.50;99.90
4207;DHT22;2117;47.972;7.830;2023-07-31T10:34:34;22.50;99.90
4207;DHT22;2117;47.972;7.830;2023-07-31T10:37:27;22.70;99.90
4207;DHT22;2117;47.972;7.830;2023-07-31T10:42:31;23.20;99.90
4207;DHT22;2117;47.972;7.830;2023-07-31T10:45:05;23.40;99.90
4207;DHT22;2117;47.972;7.830;2023-07-31T10:47:37;23.60;99.90
4207;DHT22;2117;47.972;7.830;2023-07-31T10:50:19;23.80;99.90
4207;DHT22;2117;47.972;7.830;2023-07-31T10:52:53;23.80;99.90
4207;DHT22;2117;47.972;7.830;2023-07-31T10:55:32;23.60;99.90
4207;DHT22;2117;47.972;7.830;2023-07-31T10:58:06;23.80;99.90
4207;DHT22;2117;47.972;7.830;2023-07-31T11:00:32;24.00;99.90
4207;DHT22;2117;47.972;7.830;2023-07-31T11:03:09;24.20;99.90
4207;DHT22;2117;47.972;7.830;2023-07-31T11:08:43;24.20;99.90
4207;DHT22;2117;47.972;7.830;2023-07-31T11:11:11;24.50;99.90
4207;DHT22;2117;47.972;7.830;2023-07-31T11:13:48;24.50;99.90
4207;DHT22;2117;47.972;7.830;2023-07-31T11:16:19;24.00;99.90
4207;DHT22;2117;47.972;7.830;2023-07-31T11:18:46;23.80;99.90
4207;DHT22;2117;47.972;7.830;2023-07-31T11:21:15;23.60;99.90
4207;DHT22;2117;47.972;7.830;2023-07-31T11:23:41;23.50;99.90
4207;DHT22;2117;47.972;7.830;2023-07-31T11:26:10;23.70;99.90
4207;DHT22;2117;47.972;7.830;2023-07-31T11:28:37;23.90;99.90
4207;DHT22;2117;47.972;7.830;2023-07-31T11:31:03;24.10;99.90
4207;DHT22;2117;47.972;7.830;2023-07-31T11:33:30;24.30;99.90
4207;DHT22;2117;47.972;7.830;2023-07-31T11:35:55;24.40;99.90
4207;DHT22;2117;47.972;7.830;2023-07-31T11:38:33;24.30;99.90
4207;DHT22;2117;47.972;7.830;2023-07-31T11:41:03;24.60;99.90
4207;DHT22;2117;47.972;7.830;2023-07-31T11:43:30;25.00;99.90
4207;DHT22;2117;47.972;7.830;2023-07-31T11:45:57;25.20;99.90
4207;DHT22;2117;47.972;7.830;2023-07-31T11:48:26;25.30;99.90
4207;DHT22;2117;47.972;7.830;2023-07-31T11:50:57;25.10;99.90
4207;DHT22;2117;47.972;7.830;2023-07-31T11:53:50;25.10;99.90
4207;DHT22;2117;47.972;7.830;2023-07-31T11:56:18;25.10;99.90
4207;DHT22;2117;47.972;7.830;2023-07-31T11:58:45;25.40;99.90
4207;DHT22;2117;47.972;7.830;2023-07-31T12:01:11;25.80;99.90
4207;DHT22;2117;47.972;7.830;2023-07-31T12:03:38;26.20;99.90
4207;DHT22;2117;47.972;7.830;2023-07-31T12:06:04;26.60;99.90
4207;DHT22;2117;47.972;7.830;2023-07-31T12:08:30;26.70;99.90
4207;DHT22;2117;47.972;7.830;2023-07-31T12:11:05;27.10;99.90
4207;DHT22;2117;47.972;7.830;2023-07-31T12:13:32;27.20;99.90
4207;DHT22;2117;47.972;7.830;2023-07-31T12:15:59;27.50;99.90
4207;DHT22;2117;47.972;7.830;2023-07-31T12:18:27;27.90;99.40
4207;DHT22;2117;47.972;7.830;2023-07-31T12:20:57;28.80;98.50
4207;DHT22;2117;47.972;7.830;2023-07-31T12:23:31;28.80;98.00
4207;DHT22;2117;47.972;7.830;2023-07-31T12:26:01;29.50;97.60
4207;DHT22;2117;47.972;7.830;2023-07-31T12:28:26;29.20;98.00
4207;DHT22;2117;47.972;7.830;2023-07-31T12:30:57;30.70;96.40
4207;DHT22;2117;47.972;7.830;2023-07-31T12:33:23;30.60;95.80
4207;DHT22;2117;47.972;7.830;2023-07-31T12:35:49;30.50;95.20
4207;DHT22;2117;47.972;7.830;2023-07-31T12:38:15;30.60;94.60
4207;DHT22;2117;47.972;7.830;2023-07-31T12:40:41;31.20;94.20
4207;DHT22;2117;47.972;7.830;2023-07-31T12:43:07;31.20;94.60
4207;DHT22;2117;47.972;7.830;2023-07-31T12:45:34;31.20;93.00
4207;DHT22;2117;47.972;7.830;2023-07-31T12:48:00;31.40;93.60
4207;DHT22;2117;47.972;7.830;2023-07-31T12:50:26;31.50;92.70
4207;DHT22;2117;47.972;7.830;2023-07-31T12:52:53;32.00;92.50
4207;DHT22;2117;47.972;7.830;2023-07-31T12:55:19;32.40;92.50
4207;DHT22;2117;47.972;7.830;2023-07-31T12:57:44;31.80;91.70
4207;DHT22;2117;47.972;7.830;2023-07-31T13:00:11;32.10;91.60
4207;DHT22;2117;47.972;7.830;2023-07-31T13:02:36;31.70;91.60
4207;DHT22;2117;47.972;7.830;2023-07-31T13:05:02;31.60;92.00
4207;DHT22;2117;47.972;7.830;2023-07-31T13:07:28;32.30;92.00
4207;DHT22;2117;47.972;7.830;2023-07-31T13:09:53;32.60;90.70
4207;DHT22;2117;47.972;7.830;2023-07-31T13:12:19;32.70;90.90
4207;DHT22;2117;47.972;7.830;2023-07-31T13:14:44;32.60;89.50
4207;DHT22;2117;47.972;7.830;2023-07-31T13:17:10;31.70;90.20
4207;DHT22;2117;47.972;7.830;2023-07-31T13:19:35;30.80;91.30
4207;DHT22;2117;47.972;7.830;2023-07-31T13:22:01;30.80;91.80
4207;DHT22;2117;47.972;7.830;2023-07-31T13:24:26;30.60;92.10
4207;DHT22;2117;47.972;7.830;2023-07-31T13:26:52;30.30;91.80
4207;DHT22;2117;47.972;7.830;2023-07-31T13:31:53;30.20;91.20
4207;DHT22;2117;47.972;7.830;2023-07-31T13:34:19;29.90;91.80
4207;DHT22;2117;47.972;7.830;2023-07-31T13:36:44;29.80;91.90
4207;DHT22;2117;47.972;7.830;2023-07-31T13:39:10;30.20;91.30
4207;DHT22;2117;47.972;7.830;2023-07-31T13:41:35;30.40;91.60
4207;DHT22;2117;47.972;7.830;2023-07-31T13:44:01;30.70;91.40
4207;DHT22;2117;47.972;7.830;2023-07-31T13:46:27;31.00;92.00
4207;DHT22;2117;47.972;7.830;2023-07-31T13:48:52;30.50;91.20
4207;DHT22;2117;47.972;7.830;2023-07-31T13:51:21;30.20;91.20
4207;DHT22;2117;47.972;7.830;2023-07-31T13:53:47;30.00;91.50
4207;DHT22;2117;47.972;7.830;2023-07-31T13:56:13;30.20;91.70
4207;DHT22;2117;47.972;7.830;2023-07-31T13:58:38;30.10;91.70
4207;DHT22;2117;47.972;7.830;2023-07-31T14:01:04;30.10;91.90
4207;DHT22;2117;47.972;7.830;2023-07-31T14:03:30;30.70;91.60
4207;DHT22;2117;47.972;7.830;2023-07-31T14:05:56;30.80;91.00
4207;DHT22;2117;47.972;7.830;2023-07-31T14:08:22;30.80;90.90
4207;DHT22;2117;47.972;7.830;2023-07-31T14:10:47;30.70;91.00
4207;DHT22;2117;47.972;7.830;2023-07-31T14:13:13;30.80;91.10
4207;DHT22;2117;47.972;7.830;2023-07-31T14:15:41;30.60;90.80
4207;DHT22;2117;47.972;7.830;2023-07-31T14:18:07;30.20;91.20
4207;DHT22;2117;47.972;7.830;2023-07-31T14:20:32;29.70;91.70
4207;DHT22;2117;47.972;7.830;2023-07-31T14:22:58;29.30;92.10
4207;DHT22;2117;47.972;7.830;2023-07-31T14:25:24;29.00;92.50
4207;DHT22;2117;47.972;7.830;2023-07-31T14:27:50;28.70;92.50
4207;DHT22;2117;47.972;7.830;2023-07-31T14:30:15;28.70;92.60
4207;DHT22;2117;47.972;7.830;2023-07-31T14:32:42;28.60;92.50
4207;DHT22;2117;47.972;7.830;2023-07-31T14:35:08;28.80;92.60
4207;DHT22;2117;47.972;7.830;2023-07-31T14:37:39;29.00;92.10
4207;DHT22;2117;47.972;7.830;2023-07-31T14:40:06;29.10;92.20
4207;DHT22;2117;47.972;7.830;2023-07-31T14:42:31;29.10;91.90
4207;DHT22;2117;47.972;7.830;2023-07-31T14:44:57;28.70;92.00
4207;DHT22;2117;47.972;7.830;2023-07-31T14:47:22;28.30;92.60
4207;DHT22;2117;47.972;7.830;2023-07-31T14:49:48;28.10;92.50
4207;DHT22;2117;47.972;7.830;2023-07-31T14:52:14;28.20;93.20
4207;DHT22;2117;47.972;7.830;2023-07-31T14:54:40;28.30;92.30
4207;DHT22;2117;47.972;7.830;2023-07-31T14:57:05;28.20;92.40
4207;DHT22;2117;47.972;7.830;2023-07-31T14:59:31;28.60;92.40
4207;DHT22;2117;47.972;7.830;2023-07-31T15:01:56;28.60;92.90
4207;DHT22;2117;47.972;7.830;2023-07-31T15:04:22;28.50;92.40
4207;DHT22;2117;47.972;7.830;2023-07-31T15:06:49;28.50;92.60
4207;DHT22;2117;47.972;7.830;2023-07-31T15:09:15;28.90;92.30
4207;DHT22;2117;47.972;7.830;2023-07-31T15:11:40;29.00;91.50
4207;DHT22;2117;47.972;7.830;2023-07-31T15:14:06;29.40;92.20
4207;DHT22;2117;47.972;7.830;2023-07-31T15:16:32;29.10;91.80
4207;DHT22;2117;47.972;7.830;2023-07-31T15:18:57;28.70;92.40
4207;DHT22;2117;47.972;7.830;2023-07-31T15:21:23;28.40;92.20
4207;DHT22;2117;47.972;7.830;2023-07-31T15:23:48;28.80;92.30
4207;DHT22;2117;47.972;7.830;2023-07-31T15:26:14;29.30;92.40
4207;DHT22;2117;47.972;7.830;2023-07-31T15:28:39;29.40;91.00
4207;DHT22;2117;47.972;7.830;2023-07-31T15:31:05;29.30;91.90
4207;DHT22;2117;47.972;7.830;2023-07-31T15:33:31;29.00;91.40
4207;DHT22;2117;47.972;7.830;2023-07-31T15:35:56;28.70;91.80
4207;DHT22;2117;47.972;7.830;2023-07-31T15:38:23;28.70;92.40
4207;DHT22;2117;47.972;7.830;2023-07-31T15:40:48;28.80;92.70
4207;DHT22;2117;47.972;7.830;2023-07-31T15:43:16;28.70;91.70
4207;DHT22;2117;47.972;7.830;2023-07-31T15:45:41;28.70;91.50
4207;DHT22;2117;47.972;7.830;2023-07-31T15:48:07;28.10;92.10
4207;DHT22;2117;47.972;7.830;2023-07-31T15:50:32;27.90;92.70
4207;DHT22;2117;47.972;7.830;2023-07-31T15:52:58;27.40;93.00
4207;DHT22;2117;47.972;7.830;2023-07-31T15:55:24;27.20;93.60
4207;DHT22;2117;47.972;7.830;2023-07-31T15:57:50;27.10;93.60
4207;DHT22;2117;47.972;7.830;2023-07-31T16:00:16;26.80;94.50
4207;DHT22;2117;47.972;7.830;2023-07-31T16:02:42;26.40;94.70
4207;DHT22;2117;47.972;7.830;2023-07-31T16:05:08;26.20;95.20
4207;DHT22;2117;47.972;7.830;2023-07-31T16:07:34;25.90;95.10
4207;DHT22;2117;47.972;7.830;2023-07-31T16:09:59;25.80;95.80
4207;DHT22;2117;47.972;7.830;2023-07-31T16:12:25;25.70;96.50
4207;DHT22;2117;47.972;7.830;2023-07-31T16:14:51;25.60;97.40
4207;DHT22;2117;47.972;7.830;2023-07-31T16:17:16;25.30;98.40
4207;DHT22;2117;47.972;7.830;2023-07-31T16:19:42;25.20;99.30
4207;DHT22;2117;47.972;7.830;2023-07-31T16:22:07;25.20;99.90
4207;DHT22;2117;47.972;7.830;2023-07-31T16:24:33;25.00;99.40
4207;DHT22;2117;47.972;7.830;2023-07-31T16:26:59;25.00;99.60
4207;DHT22;2117;47.972;7.830;2023-07-31T16:29:24;25.00;99.90
4207;DHT22;2117;47.972;7.830;2023-07-31T16:31:50;25.00;99.90
4207;DHT22;2117;47.972;7.830;2023-07-31T16:34:16;24.80;99.60
4207;DHT22;2117;47.972;7.830;2023-07-31T16:36:41;24.70;99.70
4207;DHT22;2117;47.972;7.830;2023-07-31T16:39:07;24.60;99.90
4207;DHT22;2117;47.972;7.830;2023-07-31T16:41:32;24.60;99.90
4207;DHT22;2117;47.972;7.830;2023-07-31T16:43:58;24.60;99.90
4207;DHT22;2117;47.972;7.830;2023-07-31T16:46:23;24.50;99.90
4207;DHT22;2117;47.972;7.830;2023-07-31T16:48:49;24.40;99.90
4207;DHT22;2117;47.972;7.830;2023-07-31T16:51:15;24.30;99.90
4207;DHT22;2117;47.972;7.830;2023-07-31T16:53:40;24.30;99.90
4207;DHT22;2117;47.972;7.830;2023-07-31T16:56:06;24.30;99.90
4207;DHT22;2117;47.972;7.830;2023-07-31T16:58:32;24.20;99.90
4207;DHT22;2117;47.972;7.830;2023-07-31T17:00:58;24.10;99.90
4207;DHT22;2117;47.972;7.830;2023-07-31T17:03:26;24.10;99.90
4207;DHT22;2117;47.972;7.830;2023-07-31T17:05:52;24.00;99.90
4207;DHT22;2117;47.972;7.830;2023-07-31T17:08:17;24.00;99.90
4207;DHT22;2117;47.972;7.830;2023-07-31T17:10:43;24.00;99.90
4207;DHT22;2117;47.972;7.830;2023-07-31T17:13:08;24.00;99.90
4207;DHT22;2117;47.972;7.830;2023-07-31T17:15:34;24.00;99.90
4207;DHT22;2117;47.972;7.830;2023-07-31T17:18:00;24.00;99.90
4207;DHT22;2117;47.972;7.830;2023-07-31T17:20:26;23.80;99.90
4207;DHT22;2117;47.972;7.830;2023-07-31T17:22:51;23.90;99.90
4207;DHT22;2117;47.972;7.830;2023-07-31T17:25:17;23.90;99.90
4207;DHT22;2117;47.972;7.830;2023-07-31T17:27:46;23.80;99.90
4207;DHT22;2117;47.972;7.830;2023-07-31T17:30:11;23.80;99.90
4207;DHT22;2117;47.972;7.830;2023-07-31T17:32:37;23.80;99.90
4207;DHT22;2117;47.972;7.830;2023-07-31T17:35:03;23.70;99.90